createdAt,value
2024-04-18T00:01:58.052Z,83.08
2024-04-18T00:04:25.145Z,83.15
2024-04-18T00:06:59.650Z,83.08
2024-04-18T00:09:26.847Z,83.15
2024-04-18T00:11:53.919Z,82.93
2024-04-18T00:14:21.381Z,82.94
2024-04-18T00:16:48.385Z,82.77
2024-04-18T00:19:15.585Z,82.92
2024-04-18T00:21:56.143Z,82.87
2024-04-18T00:24:26.240Z,83.00
2024-04-18T00:26:53.271Z,82.98
2024-04-18T00:29:20.595Z,83.03
2024-04-18T00:31:48.053Z,82.97
2024-04-18T00:34:33.866Z,83.02
2024-04-18T00:37:00.729Z,83.05
2024-04-18T00:39:27.854Z,83.03
2024-04-18T00:42:01.220Z,83.14
2024-04-18T00:44:30.993Z,83.27
2024-04-18T00:47:14.149Z,83.30
2024-04-18T00:50:01.366Z,83.54
2024-04-18T00:52:38.967Z,83.53
2024-04-18T00:55:07.125Z,83.46
2024-04-18T00:57:34.431Z,83.48
2024-04-18T01:00:01.523Z,83.67
2024-04-18T01:02:30.282Z,83.63
2024-04-18T01:05:16.608Z,83.60
2024-04-18T01:07:43.402Z,83.59
2024-04-18T01:10:22.599Z,83.64
2024-04-18T01:13:00.031Z,83.60
2024-04-18T01:15:45.481Z,83.83
2024-04-18T01:18:12.738Z,83.67
2024-04-18T01:20:39.821Z,83.80
2024-04-18T01:23:07.468Z,83.90
2024-04-18T01:25:43.433Z,83.84
2024-04-18T01:28:10.635Z,83.76
2024-04-18T01:30:57.513Z,83.85
2024-04-18T01:33:26.246Z,83.82
2024-04-18T01:35:53.437Z,83.88
2024-04-18T01:38:20.582Z,83.92
2024-04-18T01:40:47.845Z,83.90
2024-04-18T01:43:33.788Z,83.91
2024-04-18T01:46:19.424Z,84.00
2024-04-18T01:49:01.628Z,83.88
2024-04-18T01:51:47.092Z,83.79
2024-04-18T01:54:32.377Z,83.81
2024-04-18T01:56:59.369Z,83.90
2024-04-18T01:59:46.999Z,83.83
2024-04-18T02:02:13.875Z,83.83
2024-04-18T02:05:01.245Z,83.81
2024-04-18T02:07:43.673Z,83.76
2024-04-18T02:10:11.142Z,83.85
2024-04-18T02:12:57.596Z,83.66
2024-04-18T02:15:43.100Z,83.75
2024-04-18T02:18:17.645Z,83.77
2024-04-18T02:20:44.963Z,83.58
2024-04-18T02:23:23.691Z,83.63
2024-04-18T02:25:50.650Z,83.64
2024-04-18T02:28:17.770Z,83.58
2024-04-18T02:30:44.833Z,83.55
2024-04-18T02:33:12.172Z,83.47
2024-04-18T02:35:45.582Z,83.57
2024-04-18T02:38:30.903Z,83.57
2024-04-18T02:41:06.256Z,83.67
2024-04-18T02:43:50.241Z,83.71
2024-04-18T02:46:17.124Z,83.81
2024-04-18T02:49:04.282Z,83.94
2024-04-18T02:51:31.363Z,83.97
2024-04-18T02:54:13.657Z,84.07
2024-04-18T02:56:41.058Z,84.07
2024-04-18T02:59:11.391Z,84.08
2024-04-18T03:01:50.525Z,84.09
2024-04-18T03:04:17.577Z,84.11
2024-04-18T03:06:46.709Z,84.26
2024-04-18T03:09:14.153Z,84.20
2024-04-18T03:11:53.312Z,84.23
2024-04-18T03:14:39.032Z,84.12
2024-04-18T03:17:06.102Z,84.36
2024-04-18T03:19:53.712Z,84.42
2024-04-18T03:22:26.316Z,84.40
2024-04-18T03:24:58.692Z,84.47
2024-04-18T03:27:28.515Z,84.49
2024-04-18T03:29:55.190Z,84.54
2024-04-18T03:32:34.015Z,84.49
2024-04-18T03:35:01.091Z,84.52
2024-04-18T03:37:28.043Z,84.61
2024-04-18T03:39:55.310Z,84.55
2024-04-18T03:42:22.413Z,84.52
2024-04-18T03:44:52.345Z,84.51
2024-04-18T03:47:19.643Z,84.53
2024-04-18T03:50:06.515Z,84.58
2024-04-18T03:52:39.774Z,84.57
2024-04-18T03:55:26.096Z,84.65
2024-04-18T03:57:53.218Z,84.63
2024-04-18T04:00:42.082Z,84.62
2024-04-18T04:03:10.439Z,84.64
2024-04-18T04:05:37.570Z,84.63
2024-04-18T04:08:06.362Z,84.67
2024-04-18T04:10:39.320Z,84.55
2024-04-18T04:13:06.981Z,84.65
2024-04-18T04:15:43.058Z,84.69
2024-04-18T04:18:10.128Z,84.61
2024-04-18T04:20:43.028Z,84.53
2024-04-18T04:23:10.096Z,84.60
2024-04-18T04:25:55.914Z,84.47
2024-04-18T04:28:22.920Z,84.47
2024-04-18T04:30:50.265Z,84.34
2024-04-18T04:33:17.296Z,84.69
2024-04-18T04:35:44.352Z,84.13
2024-04-18T04:38:11.334Z,81.95
2024-04-18T04:40:38.521Z,79.16
2024-04-18T04:43:05.667Z,76.00
2024-04-18T04:45:32.888Z,72.44
2024-04-18T04:48:07.449Z,68.93
2024-04-18T04:51:02.846Z,65.59
2024-04-18T04:53:32.505Z,62.42
2024-04-18T04:55:59.541Z,59.69
2024-04-18T04:58:26.991Z,57.02
2024-04-18T05:00:55.878Z,54.95
2024-04-18T05:03:38.486Z,52.44
2024-04-18T05:06:24.216Z,49.57
2024-04-18T05:09:10.160Z,48.65
2024-04-18T05:11:37.243Z,48.90
2024-04-18T05:14:25.901Z,50.20
2024-04-18T05:16:53.368Z,50.36
2024-04-18T05:19:21.015Z,50.73
2024-04-18T05:21:48.780Z,49.41
2024-04-18T05:24:34.919Z,47.43
2024-04-18T05:27:01.734Z,45.76
2024-04-18T05:29:46.126Z,45.04
2024-04-18T05:32:12.910Z,43.59
2024-04-18T05:34:59.935Z,42.06
2024-04-18T05:37:26.874Z,41.30
2024-04-18T05:39:54.023Z,40.03
2024-04-18T05:42:20.498Z,38.76
2024-04-18T05:45:08.271Z,38.01
2024-04-18T05:47:54.504Z,37.33
2024-04-18T05:50:20.807Z,36.20
2024-04-18T05:52:48.043Z,36.41
2024-04-18T05:55:20.386Z,35.89
2024-04-18T05:57:46.788Z,36.23
2024-04-18T06:00:32.538Z,35.62
2024-04-18T06:02:59.329Z,34.65
2024-04-18T06:05:26.099Z,33.69
2024-04-18T06:08:11.181Z,33.89
2024-04-18T06:10:38.511Z,34.39
2024-04-18T06:13:20.784Z,34.43
2024-04-18T06:15:49.485Z,35.46
2024-04-18T06:18:16.253Z,35.94
2024-04-18T06:20:45.593Z,36.51
2024-04-18T06:23:12.768Z,37.58
2024-04-18T06:25:39.672Z,38.38
2024-04-18T06:28:07.174Z,39.67
2024-04-18T06:30:33.548Z,40.50
2024-04-18T06:33:00.340Z,41.38
2024-04-18T06:35:26.964Z,42.64
2024-04-18T06:37:53.496Z,43.92
2024-04-18T06:40:24.610Z,44.83
2024-04-18T06:42:51.331Z,45.62
2024-04-18T06:45:19.281Z,46.62
2024-04-18T06:47:45.931Z,47.69
2024-04-18T06:50:12.787Z,48.62
2024-04-18T06:52:39.076Z,49.47
2024-04-18T06:55:05.849Z,50.19
2024-04-18T06:57:41.443Z,51.07
2024-04-18T07:00:11.623Z,51.70
2024-04-18T07:02:38.131Z,52.50
2024-04-18T07:05:36.927Z,53.02
2024-04-18T07:08:21.547Z,53.19
2024-04-18T07:10:46.370Z,52.97
2024-04-18T07:13:28.794Z,53.13
2024-04-18T07:15:55.749Z,52.79
2024-04-18T07:18:41.371Z,53.01
2024-04-18T07:21:08.113Z,53.52
2024-04-18T07:23:37.273Z,53.60
2024-04-18T07:26:04.052Z,51.32
2024-04-18T07:28:30.364Z,50.03
2024-04-18T07:30:56.777Z,48.91
2024-04-18T07:33:23.372Z,47.31
2024-04-18T07:35:57.304Z,46.20
2024-04-18T07:38:25.211Z,45.69
2024-04-18T07:40:51.842Z,44.15
2024-04-18T07:43:18.404Z,42.81
2024-04-18T07:45:45.356Z,42.18
2024-04-18T07:48:12.451Z,42.32
2024-04-18T07:50:38.786Z,42.42
2024-04-18T07:53:10.962Z,42.56
2024-04-18T07:55:37.689Z,42.80
2024-04-18T07:58:02.859Z,42.88
2024-04-18T08:00:31.018Z,43.27
2024-04-18T08:03:00.990Z,44.15
2024-04-18T08:05:31.500Z,44.75
2024-04-18T08:08:01.905Z,45.08
2024-04-18T08:10:36.653Z,45.90
2024-04-18T08:13:15.156Z,46.44
2024-04-18T08:18:14.070Z,47.20
2024-04-18T08:20:40.687Z,47.83
2024-04-18T08:23:07.341Z,48.42
2024-04-18T08:25:33.961Z,49.12
2024-04-18T08:28:00.504Z,50.18
2024-04-18T08:30:28.059Z,50.79
2024-04-18T08:32:54.633Z,51.68
2024-04-18T08:35:20.192Z,52.50
2024-04-18T08:37:46.713Z,53.21
2024-04-18T08:40:13.590Z,53.53
2024-04-18T08:42:40.001Z,54.18
2024-04-18T08:45:09.596Z,54.61
2024-04-18T08:47:37.718Z,55.24
2024-04-18T08:50:06.852Z,55.37
2024-04-18T08:52:37.807Z,55.41
2024-04-18T08:55:05.759Z,55.63
2024-04-18T08:57:35.761Z,55.62
2024-04-18T09:00:05.428Z,55.35
2024-04-18T09:02:32.845Z,54.87
2024-04-18T09:05:00.594Z,52.86
2024-04-18T09:07:27.599Z,51.64
2024-04-18T09:10:02.974Z,49.88
2024-04-18T09:12:29.425Z,48.19
2024-04-18T09:14:56.688Z,47.44
2024-04-18T09:17:23.305Z,47.09
2024-04-18T09:19:52.146Z,46.26
2024-04-18T09:22:19.745Z,45.87
2024-04-18T09:24:46.880Z,45.89
2024-04-18T09:27:14.573Z,46.07
2024-04-18T09:29:40.827Z,46.37
2024-04-18T09:32:09.201Z,46.59
2024-04-18T09:34:38.047Z,46.08
2024-04-18T09:37:07.084Z,46.32
2024-04-18T09:39:38.402Z,46.33
2024-04-18T09:42:14.576Z,46.09
2024-04-18T09:44:45.774Z,45.22
2024-04-18T09:47:14.831Z,44.30
2024-04-18T09:49:42.740Z,43.31
2024-04-18T09:52:13.903Z,43.00
2024-04-18T09:54:41.513Z,43.35
2024-04-18T09:57:08.846Z,41.91
2024-04-18T09:59:35.774Z,41.49
2024-04-18T10:02:04.076Z,41.47
2024-04-18T10:04:32.234Z,40.48
2024-04-18T10:06:59.727Z,39.54
2024-04-18T10:09:28.510Z,38.95
2024-04-18T10:11:55.308Z,38.60
2024-04-18T10:14:23.237Z,38.85
2024-04-18T10:16:50.759Z,39.45
2024-04-18T10:19:22.894Z,39.73
2024-04-18T10:22:10.951Z,40.64
2024-04-18T10:24:43.765Z,41.96
2024-04-18T10:27:15.265Z,43.82
2024-04-18T10:29:43.286Z,45.55
2024-04-18T10:32:11.462Z,46.82
2024-04-18T10:34:42.850Z,48.34
2024-04-18T10:37:10.374Z,49.21
2024-04-18T10:39:39.777Z,50.35
2024-04-18T10:42:10.286Z,51.30
2024-04-18T10:44:37.434Z,52.06
2024-04-18T10:47:04.116Z,52.74
2024-04-18T10:49:30.458Z,52.85
2024-04-18T10:52:04.901Z,53.27
2024-04-18T10:54:31.641Z,54.26
2024-04-18T10:56:58.502Z,55.16
2024-04-18T10:59:24.984Z,55.58
2024-04-18T11:01:51.902Z,56.17
2024-04-18T11:04:18.335Z,56.63
2024-04-18T11:06:43.488Z,56.51
2024-04-18T11:09:10.004Z,56.38
2024-04-18T11:11:39.565Z,56.03
2024-04-18T11:14:08.071Z,56.15
2024-04-18T11:16:35.981Z,56.27
2024-04-18T11:19:02.967Z,56.22
2024-04-18T11:21:31.057Z,56.02
2024-04-18T11:23:59.115Z,55.87
2024-04-18T11:26:27.522Z,55.68
2024-04-18T11:28:57.075Z,55.35
2024-04-18T11:31:23.501Z,54.89
2024-04-18T11:33:50.225Z,54.91
2024-04-18T11:36:17.535Z,55.03
2024-04-18T11:38:43.998Z,54.77
2024-04-18T11:41:10.265Z,54.72
2024-04-18T11:43:36.524Z,54.55
2024-04-18T11:46:02.974Z,54.86
2024-04-18T11:48:29.906Z,54.89
2024-04-18T11:50:56.489Z,54.94
2024-04-18T11:53:23.581Z,54.59
2024-04-18T11:55:51.085Z,54.86
2024-04-18T11:58:27.921Z,55.04
2024-04-18T12:00:54.846Z,55.12
2024-04-18T12:03:37.935Z,54.79
2024-04-18T12:06:26.006Z,54.29
2024-04-18T12:08:55.336Z,53.92
2024-04-18T12:11:29.851Z,53.88
2024-04-18T12:14:12.721Z,53.67
2024-04-18T12:17:06.158Z,53.67
2024-04-18T12:19:42.696Z,53.65
2024-04-18T12:22:30.552Z,53.60
2024-04-18T12:25:12.803Z,53.37
2024-04-18T12:27:40.205Z,53.15
2024-04-18T12:30:30.136Z,51.60
2024-04-18T12:33:16.548Z,51.89
2024-04-18T12:35:43.950Z,52.21
2024-04-18T12:38:10.817Z,52.52
2024-04-18T12:40:43.630Z,52.42
2024-04-18T12:43:10.482Z,51.93
2024-04-18T12:45:55.511Z,52.54
2024-04-18T12:48:46.044Z,52.46
2024-04-18T12:51:13.411Z,50.82
2024-04-18T12:53:43.514Z,50.37
2024-04-18T12:56:11.134Z,50.49
2024-04-18T12:58:40.780Z,50.40
2024-04-18T13:01:08.582Z,50.34
2024-04-18T13:03:38.532Z,50.74
2024-04-18T13:06:26.225Z,51.01
2024-04-18T13:08:53.647Z,50.66
2024-04-18T13:11:39.277Z,50.71
2024-04-18T13:14:06.588Z,50.66
2024-04-18T13:16:34.413Z,50.07
2024-04-18T13:19:10.526Z,49.74
2024-04-18T13:21:37.731Z,49.24
2024-04-18T13:24:04.810Z,49.48
2024-04-18T13:26:50.869Z,49.20
2024-04-18T13:29:18.038Z,47.86
2024-04-18T13:31:44.837Z,47.77
2024-04-18T13:34:21.105Z,47.41
2024-04-18T13:36:48.151Z,46.99
2024-04-18T13:39:15.084Z,46.02
2024-04-18T13:41:44.142Z,45.67
2024-04-18T13:44:17.008Z,45.38
2024-04-18T13:46:44.496Z,45.62
2024-04-18T13:49:11.514Z,45.36
2024-04-18T13:51:54.147Z,45.87
2024-04-18T13:54:36.038Z,46.45
2024-04-18T13:57:23.212Z,46.88
2024-04-18T14:00:12.587Z,47.44
2024-04-18T14:03:08.692Z,47.00
2024-04-18T14:05:55.849Z,46.77
2024-04-18T14:08:36.062Z,47.21
2024-04-18T14:11:21.716Z,47.87
2024-04-18T14:14:04.921Z,48.04
2024-04-18T14:16:49.616Z,48.35
2024-04-18T14:19:30.956Z,48.61
2024-04-18T14:22:04.085Z,48.90
2024-04-18T14:24:31.708Z,49.27
2024-04-18T14:26:58.598Z,49.64
2024-04-18T14:29:28.652Z,50.26
2024-04-18T14:32:01.001Z,50.62
2024-04-18T14:35:08.157Z,51.16
2024-04-18T14:37:35.135Z,52.08
2024-04-18T14:40:03.164Z,51.95
2024-04-18T14:42:30.279Z,51.51
2024-04-18T14:44:57.339Z,51.30
2024-04-18T14:47:24.237Z,51.20
2024-04-18T14:50:01.221Z,51.06
2024-04-18T14:52:33.905Z,50.67
2024-04-18T14:55:00.963Z,50.47
2024-04-18T14:57:34.213Z,50.13
2024-04-18T15:00:19.928Z,50.11
2024-04-18T15:02:47.285Z,50.15
2024-04-18T15:05:33.797Z,50.16
2024-04-18T15:08:01.305Z,50.11
2024-04-18T15:10:46.866Z,50.30
2024-04-18T15:13:13.932Z,50.33
2024-04-18T15:15:44.794Z,50.24
2024-04-18T15:18:13.118Z,50.40
2024-04-18T15:20:40.457Z,50.57
2024-04-18T15:23:10.779Z,50.68
2024-04-18T15:25:38.490Z,50.97
2024-04-18T15:28:06.079Z,51.47
2024-04-18T15:30:34.658Z,51.73
2024-04-18T15:33:21.192Z,51.93
2024-04-18T15:35:48.434Z,51.89
2024-04-18T15:38:15.785Z,52.12
2024-04-18T15:41:01.874Z,52.33
2024-04-18T15:43:36.689Z,52.71
2024-04-18T15:46:06.412Z,53.17
2024-04-18T15:48:34.890Z,53.15
2024-04-18T15:51:02.091Z,52.99
2024-04-18T15:53:29.039Z,53.07
2024-04-18T15:56:08.856Z,53.04
2024-04-18T15:58:54.535Z,53.29
2024-04-18T16:01:21.978Z,53.93
2024-04-18T16:04:07.924Z,54.11
2024-04-18T16:06:54.026Z,54.31
2024-04-18T16:09:39.796Z,54.58
2024-04-18T16:12:22.420Z,54.81
2024-04-18T16:15:01.459Z,54.94
2024-04-18T16:17:28.452Z,55.21
2024-04-18T16:20:12.120Z,55.12
2024-04-18T16:22:39.424Z,55.56
2024-04-18T16:25:25.347Z,55.82
2024-04-18T16:27:52.888Z,55.91
2024-04-18T16:30:20.757Z,56.20
2024-04-18T16:32:49.200Z,56.31
2024-04-18T16:35:16.808Z,56.60
2024-04-18T16:38:06.487Z,56.65
2024-04-18T16:40:50.313Z,56.72
2024-04-18T16:43:29.664Z,57.07
2024-04-18T16:45:59.469Z,57.18
2024-04-18T16:48:27.214Z,57.44
2024-04-18T16:50:54.284Z,57.60
2024-04-18T16:53:22.626Z,58.19
2024-04-18T16:55:49.810Z,58.30
2024-04-18T16:58:17.127Z,58.95
2024-04-18T17:00:56.029Z,59.27
2024-04-18T17:03:23.302Z,59.70
2024-04-18T17:06:03.987Z,59.76
2024-04-18T17:08:31.565Z,60.22
2024-04-18T17:10:58.729Z,60.47
2024-04-18T17:13:44.888Z,60.43
2024-04-18T17:16:11.894Z,60.69
2024-04-18T17:18:46.143Z,60.71
2024-04-18T17:21:13.715Z,60.66
2024-04-18T17:23:40.486Z,60.87
2024-04-18T17:26:07.263Z,61.24
2024-04-18T17:28:34.472Z,61.26
2024-04-18T17:31:01.610Z,61.11
2024-04-18T17:33:28.925Z,61.36
2024-04-18T17:35:59.004Z,61.36
2024-04-18T17:38:45.244Z,61.06
2024-04-18T17:41:29.940Z,61.41
2024-04-18T17:44:15.225Z,61.54
2024-04-18T17:46:54.142Z,61.58
2024-04-18T17:49:21.364Z,61.66
2024-04-18T17:51:48.432Z,61.87
2024-04-18T17:54:17.843Z,61.76
2024-04-18T17:56:45.215Z,61.87
2024-04-18T17:59:14.872Z,61.82
2024-04-18T18:01:42.908Z,62.02
2024-04-18T18:04:10.626Z,62.41
2024-04-18T18:06:38.481Z,62.26
2024-04-18T18:09:06.429Z,62.36
2024-04-18T18:11:34.440Z,62.25
2024-04-18T18:14:03.484Z,62.41
2024-04-18T18:16:49.458Z,62.54
2024-04-18T18:19:16.710Z,62.89
2024-04-18T18:21:56.105Z,62.88
2024-04-18T18:24:23.235Z,63.00
2024-04-18T18:26:50.462Z,63.17
2024-04-18T18:29:18.397Z,63.40
2024-04-18T18:32:04.657Z,63.56
2024-04-18T18:34:33.123Z,63.57
2024-04-18T18:36:59.898Z,63.61
2024-04-18T18:39:30.925Z,63.95
2024-04-18T18:41:58.096Z,63.77
2024-04-18T18:44:35.820Z,63.98
2024-04-18T18:47:03.039Z,64.00
2024-04-18T18:49:48.346Z,64.50
2024-04-18T18:52:15.556Z,64.51
2024-04-18T18:54:42.491Z,64.80
2024-04-18T18:57:09.908Z,64.76
2024-04-18T18:59:36.959Z,64.75
2024-04-18T19:02:04.019Z,65.18
2024-04-18T19:04:50.897Z,65.21
2024-04-18T19:07:18.023Z,65.47
2024-04-18T19:09:46.227Z,65.59
2024-04-18T19:12:13.714Z,65.75
2024-04-18T19:14:40.851Z,65.84
2024-04-18T19:17:08.076Z,66.29
2024-04-18T19:19:35.635Z,66.37
2024-04-18T19:22:04.316Z,66.29
2024-04-18T19:24:31.303Z,66.64
2024-04-18T19:26:58.545Z,66.55
2024-04-18T19:29:35.544Z,66.46
2024-04-18T19:32:08.013Z,66.21
2024-04-18T19:34:35.260Z,66.20
2024-04-18T19:37:04.911Z,66.02
2024-04-18T19:39:32.422Z,66.03
2024-04-18T19:41:59.569Z,66.01
2024-04-18T19:44:26.629Z,66.05
2024-04-18T19:46:53.413Z,65.88
2024-04-18T19:49:20.306Z,66.02
2024-04-18T19:51:56.151Z,66.05
2024-04-18T19:54:22.921Z,65.86
2024-04-18T19:56:49.653Z,65.84
2024-04-18T19:59:16.431Z,65.40
2024-04-18T20:01:43.210Z,65.64
2024-04-18T20:04:10.194Z,65.57
2024-04-18T20:06:37.149Z,65.13
2024-04-18T20:09:04.083Z,65.10
2024-04-18T20:11:31.320Z,64.93
2024-04-18T20:13:58.335Z,64.78
2024-04-18T20:16:25.586Z,64.67
2024-04-18T20:19:11.266Z,64.66
2024-04-18T20:21:38.233Z,64.64
2024-04-18T20:24:05.481Z,64.67
2024-04-18T20:26:34.222Z,64.40
2024-04-18T20:29:11.531Z,64.54
2024-04-18T20:31:38.481Z,64.49
2024-04-18T20:34:05.266Z,64.42
2024-04-18T20:36:33.011Z,64.39
2024-04-18T20:38:59.976Z,64.28
2024-04-18T20:41:26.714Z,64.44
2024-04-18T20:43:53.009Z,64.33
2024-04-18T20:46:23.045Z,64.34
2024-04-18T20:48:49.471Z,64.49
2024-04-18T20:51:19.560Z,64.41
2024-04-18T20:53:45.911Z,64.46
2024-04-18T20:56:10.949Z,64.62
2024-04-18T20:58:37.279Z,64.88
2024-04-18T21:01:02.278Z,64.95
2024-04-18T21:03:28.869Z,65.10
2024-04-18T21:05:55.280Z,65.18
2024-04-18T21:08:20.155Z,65.28
2024-04-18T21:10:46.563Z,65.52
2024-04-18T21:13:13.983Z,65.82
2024-04-18T21:15:40.434Z,65.81
2024-04-18T21:18:07.159Z,66.16
2024-04-18T21:20:33.760Z,66.23
2024-04-18T21:23:00.393Z,66.33
2024-04-18T21:25:26.947Z,66.48
2024-04-18T21:27:53.348Z,66.58
2024-04-18T21:30:18.463Z,66.66
2024-04-18T21:32:45.080Z,66.88
2024-04-18T21:35:11.527Z,67.21
2024-04-18T21:37:37.886Z,67.27
2024-04-18T21:40:03.089Z,67.41
2024-04-18T21:42:29.843Z,67.55
2024-04-18T21:44:56.270Z,67.72
2024-04-18T21:47:22.635Z,68.00
2024-04-18T21:49:49.513Z,67.97
2024-04-18T21:52:15.883Z,68.22
2024-04-18T21:54:42.294Z,68.29
2024-04-18T21:57:09.290Z,68.48
2024-04-18T21:59:36.865Z,68.93
2024-04-18T22:02:03.455Z,68.93
2024-04-18T22:04:30.157Z,68.99
2024-04-18T22:06:57.139Z,69.17
2024-04-18T22:09:23.615Z,69.27
2024-04-18T22:11:50.707Z,69.56
2024-04-18T22:14:17.043Z,69.66
2024-04-18T22:16:44.981Z,69.98
2024-04-18T22:19:12.110Z,70.06
2024-04-18T22:21:38.885Z,70.25
2024-04-18T22:24:06.158Z,70.51
2024-04-18T22:26:32.759Z,70.82
2024-04-18T22:28:59.300Z,70.98
2024-04-18T22:31:25.838Z,71.00
2024-04-18T22:33:52.523Z,71.26
2024-04-18T22:36:19.391Z,71.48
2024-04-18T22:38:45.795Z,71.76
2024-04-18T22:41:12.133Z,71.71
2024-04-18T22:43:38.520Z,71.79
2024-04-18T22:46:05.047Z,71.89
2024-04-18T22:48:32.152Z,72.13
2024-04-18T22:51:04.357Z,72.17
2024-04-18T22:53:30.742Z,72.54
2024-04-18T22:56:00.501Z,72.45
2024-04-18T22:58:28.111Z,72.45
2024-04-18T23:01:04.347Z,72.55
2024-04-18T23:03:30.896Z,72.71
2024-04-18T23:06:11.265Z,72.99
2024-04-18T23:08:40.744Z,73.22
2024-04-18T23:11:07.161Z,73.14
2024-04-18T23:13:34.335Z,73.28
2024-04-18T23:16:00.724Z,73.31
2024-04-18T23:18:28.199Z,73.39
2024-04-18T23:20:55.710Z,73.43
2024-04-18T23:23:32.409Z,73.66
2024-04-18T23:25:58.794Z,73.74
2024-04-18T23:28:25.220Z,73.90
2024-04-18T23:30:51.798Z,74.10
2024-04-18T23:33:18.193Z,74.12
2024-04-18T23:35:45.463Z,74.36
2024-04-18T23:38:11.973Z,74.40
2024-04-18T23:40:39.316Z,74.51
2024-04-18T23:43:06.269Z,74.72
2024-04-18T23:45:32.681Z,74.63
2024-04-18T23:47:59.245Z,74.93
2024-04-18T23:50:25.710Z,74.84
2024-04-18T23:52:52.418Z,75.02
2024-04-18T23:55:19.055Z,75.15
2024-04-18T23:57:45.498Z,75.32
